メインページ
METAR-TAF:

METAR-TAF

空港 :

Keene, ニューハンプシャー州, アメリカ合衆国

緯度: 42-54N, 経度: 072-16W, 海抜: 149m

現時点の気象観測

当レポートは40分前の17:56(UTC)に作成
南西の風 6kt
気温 28°C
湿度 55%
気圧 1021 hPa
視程: 16.1km
晴天

METAR: KEEN 261756Z AUTO 22006KT 10SM CLR 28/18 A3016 RMK AO2 SLP214 T02780183 10283 20172 58019 $

時間: 14:36 (18:36 UTC)


TAF: 見つかりません

4,000以上の空港の気象観測と天気予報(METAR報とTAF報)

利用可能な観測所は地図上に黄色い丸と赤い丸で示す。

丸の上にカーソルを重ねると観測所名を参照できる。

次にクリックすると気象観測と天気予報を参照できる。

マップの切り替え:黒色「×」印の緑ボタンをクリックして拡大、「-」印の緑ボタンをクリックして縮小、緑色の三角印をクリックして隣りの地図に切り替え


METAR-TAF: